Terminal Aerodrome Forecast
Issued by NWS

Home | Current Version | Previous Version | Text Only | Print | Product List | Glossary On
Versions: 1 2 3 4 5 6 7 8 9 10 11 12 13 14 15 16 17 18 19 20 21 22 23 24 25
000
FTUS43 KGRR 172300
TAFAZO
TAF
KAZO 172324Z 1800/1824 31009KT P6SM FEW050
     FM180300 00000KT P6SM SKC
     FM180900 00000KT 4SM BR SKC
     FM181500 06005KT P6SM SCT025
     FM181800 04006KT P6SM SCT050=

USA.gov is the U.S. government's official web portal to all federal, state and local government web resources and services.